createdAt,value
2017-09-02T00:00:45.132Z,1.60
2017-09-02T00:03:12.618Z,1.67
2017-09-02T00:05:46.482Z,1.60
2017-09-02T00:08:13.984Z,1.70
2017-09-02T00:10:42.128Z,1.70
2017-09-02T00:13:09.616Z,1.63
2017-09-02T00:15:44.547Z,1.60
2017-09-02T00:18:12.116Z,1.30
2017-09-02T00:20:45.716Z,1.43
2017-09-02T00:23:13.311Z,1.80
2017-09-02T00:25:40.851Z,1.37
2017-09-02T00:28:08.413Z,2.00
2017-09-02T00:30:45.621Z,1.77
2017-09-02T00:33:13.463Z,1.50
2017-09-02T00:35:44.368Z,1.93
2017-09-02T00:38:11.976Z,1.20
2017-09-02T00:40:45.745Z,1.40
2017-09-02T00:43:14.548Z,1.93
2017-09-02T00:45:45.600Z,1.97
2017-09-02T00:48:14.844Z,2.03
2017-09-02T00:50:45.409Z,1.80
2017-09-02T00:53:16.468Z,1.83
2017-09-02T00:55:44.057Z,2.10
2017-09-02T00:58:11.543Z,1.90
2017-09-02T01:00:44.698Z,2.30
2017-09-02T01:03:12.245Z,2.90
2017-09-02T01:05:40.104Z,2.00
2017-09-02T01:08:07.591Z,1.90
2017-09-02T01:10:45.429Z,1.73
2017-09-02T01:13:16.051Z,1.93
2017-09-02T01:15:43.538Z,1.90
2017-09-02T01:18:11.119Z,2.50
2017-09-02T01:20:44.902Z,2.53
2017-09-02T01:23:12.785Z,2.43
2017-09-02T01:25:40.371Z,1.40
2017-09-02T01:28:07.931Z,2.00
2017-09-02T01:30:43.900Z,1.80
2017-09-02T01:33:11.391Z,2.27
2017-09-02T01:35:38.990Z,2.23
2017-09-02T01:38:06.549Z,2.20
2017-09-02T01:40:34.415Z,2.40
2017-09-02T01:43:04.872Z,2.00
2017-09-02T01:45:32.402Z,2.40
2017-09-02T01:48:06.025Z,2.83
2017-09-02T01:50:33.556Z,2.47
2017-09-02T01:53:02.144Z,2.17
2017-09-02T01:55:29.630Z,1.80
2017-09-02T01:57:57.178Z,2.80
2017-09-02T02:00:24.720Z,1.90
2017-09-02T02:02:52.213Z,2.30
2017-09-02T02:05:26.448Z,2.37
2017-09-02T02:07:53.968Z,2.00
2017-09-02T02:10:24.797Z,2.50
2017-09-02T02:12:52.378Z,2.80
2017-09-02T02:15:19.894Z,2.00
2017-09-02T02:17:54.738Z,1.93
2017-09-02T02:20:22.303Z,2.30
2017-09-02T02:22:50.149Z,2.70
2017-09-02T02:25:17.723Z,2.43
2017-09-02T02:27:45.279Z,2.90
2017-09-02T02:30:13.058Z,2.27
2017-09-02T02:32:40.641Z,2.27
2017-09-02T02:35:14.523Z,1.97
2017-09-02T02:37:45.417Z,2.10
2017-09-02T02:40:13.029Z,1.97
2017-09-02T02:42:46.604Z,2.20
2017-09-02T02:45:14.307Z,2.80
2017-09-02T02:47:42.146Z,2.37
2017-09-02T02:50:09.703Z,2.80
2017-09-02T02:52:44.923Z,2.77
2017-09-02T02:55:12.427Z,3.33
2017-09-02T02:57:46.178Z,2.70
2017-09-02T03:00:13.672Z,3.00
2017-09-02T03:02:41.177Z,2.80
2017-09-02T03:05:15.522Z,2.13
2017-09-02T03:07:43.102Z,2.70
2017-09-02T03:10:10.663Z,2.73
2017-09-02T03:12:44.132Z,2.90
2017-09-02T03:15:14.959Z,3.17
2017-09-02T03:17:45.834Z,2.20
2017-09-02T03:20:14.138Z,2.23
2017-09-02T03:22:41.627Z,3.10
2017-09-02T03:25:15.172Z,2.87
2017-09-02T03:27:42.669Z,2.63
2017-09-02T03:30:10.188Z,3.20
2017-09-02T03:32:44.012Z,2.27
2017-09-02T03:35:11.869Z,2.37
2017-09-02T03:37:39.356Z,2.07
2017-09-02T03:40:06.852Z,1.97
2017-09-02T03:42:44.676Z,3.20
2017-09-02T03:45:12.236Z,3.13
2017-09-02T03:47:40.000Z,2.57
2017-09-02T03:50:14.125Z,2.77
2017-09-02T03:52:45.263Z,2.40
2017-09-02T03:55:12.755Z,2.70
2017-09-02T03:57:40.280Z,2.37
2017-09-02T04:00:14.526Z,2.47
2017-09-02T04:02:42.021Z,1.97
2017-09-02T04:05:09.629Z,2.80
2017-09-02T04:07:37.924Z,2.93
2017-09-02T04:10:05.759Z,3.10
2017-09-02T04:12:34.608Z,2.67
2017-09-02T04:15:05.364Z,2.80
2017-09-02T04:17:32.871Z,3.20
2017-09-02T04:20:06.424Z,2.13
2017-09-02T04:22:34.734Z,3.07
2017-09-02T04:25:06.129Z,2.60
2017-09-02T04:27:35.159Z,4.03
2017-09-02T04:30:02.731Z,2.27
2017-09-02T04:32:36.228Z,3.10
2017-09-02T04:35:04.944Z,2.80
2017-09-02T04:37:35.833Z,3.10
2017-09-02T04:40:04.327Z,3.40
2017-09-02T04:42:31.899Z,3.10
2017-09-02T04:44:59.404Z,2.70
2017-09-02T04:47:34.627Z,2.90
2017-09-02T04:50:02.123Z,3.50
2017-09-02T04:52:29.610Z,2.73
2017-09-02T04:55:05.074Z,3.33
2017-09-02T04:57:32.627Z,3.43
2017-09-02T05:00:06.466Z,3.30
2017-09-02T05:02:33.989Z,2.33
2017-09-02T05:05:01.466Z,2.73
2017-09-02T05:07:35.560Z,2.93
2017-09-02T05:10:03.059Z,3.10
2017-09-02T05:12:37.177Z,4.30
2017-09-02T05:15:14.428Z,3.30
2017-09-02T05:17:42.279Z,3.90
2017-09-02T05:20:09.771Z,2.40
2017-09-02T05:22:37.271Z,3.10
2017-09-02T05:25:15.084Z,4.10
2017-09-02T05:27:46.019Z,4.13
2017-09-02T05:30:14.280Z,4.13
2017-09-02T05:32:45.286Z,3.83
2017-09-02T05:35:13.140Z,3.70
2017-09-02T05:37:44.477Z,3.13
2017-09-02T05:40:12.028Z,4.13
2017-09-02T05:42:45.726Z,3.60
2017-09-02T05:45:13.218Z,3.77
2017-09-02T05:47:40.732Z,3.70
2017-09-02T05:50:14.560Z,3.33
2017-09-02T05:52:45.903Z,4.00
2017-09-02T05:55:13.413Z,3.40
2017-09-02T05:57:40.925Z,3.63
2017-09-02T06:00:08.424Z,3.67
2017-09-02T06:02:44.113Z,3.30
2017-09-02T06:05:11.905Z,3.23
2017-09-02T06:07:39.387Z,3.20
2017-09-02T06:10:14.439Z,2.60
2017-09-02T06:12:41.947Z,3.20
2017-09-02T06:15:09.440Z,3.10
2017-09-02T06:17:43.855Z,3.33
2017-09-02T06:20:14.781Z,2.77
2017-09-02T06:22:46.099Z,2.80
2017-09-02T06:25:14.889Z,3.17
2017-09-02T06:27:45.508Z,2.10
2017-09-02T06:30:16.053Z,1.83
2017-09-02T06:32:44.654Z,2.97
2017-09-02T06:35:15.899Z,2.50
2017-09-02T06:37:43.387Z,2.30
2017-09-02T06:40:16.932Z,1.70
2017-09-02T06:42:45.187Z,2.13
2017-09-02T06:45:12.680Z,3.27
2017-09-02T06:47:40.271Z,2.43
2017-09-02T06:50:07.754Z,2.77
2017-09-02T06:52:45.243Z,2.23
2017-09-02T06:55:12.768Z,2.77
2017-09-02T06:57:40.257Z,2.43
2017-09-02T07:00:07.895Z,2.40
2017-09-02T07:02:45.715Z,2.63
2017-09-02T07:05:13.674Z,1.83
2017-09-02T07:07:44.312Z,1.60
2017-09-02T07:10:15.096Z,2.53
2017-09-02T07:12:45.891Z,2.77
2017-09-02T07:15:14.858Z,2.20
2017-09-02T07:17:45.271Z,2.30
2017-09-02T07:20:12.760Z,1.93
2017-09-02T07:22:46.763Z,2.63
2017-09-02T07:25:14.245Z,2.20
2017-09-02T07:27:41.752Z,2.50
2017-09-02T07:30:15.690Z,3.03
2017-09-02T07:32:43.171Z,2.43
2017-09-02T07:35:11.012Z,2.87
2017-09-02T07:37:44.655Z,2.27
2017-09-02T07:40:12.452Z,2.93
2017-09-02T07:42:40.021Z,2.80
2017-09-02T07:45:14.707Z,2.20
2017-09-02T07:47:42.192Z,2.57
2017-09-02T07:50:10.476Z,3.00
2017-09-02T07:52:38.346Z,2.43
2017-09-02T07:55:06.640Z,1.73
2017-09-02T07:57:34.130Z,2.10
2017-09-02T08:00:01.633Z,2.30
2017-09-02T08:02:29.221Z,2.20
2017-09-02T08:04:57.005Z,2.93
2017-09-02T08:07:34.751Z,2.53
2017-09-02T08:10:06.009Z,2.20
2017-09-02T08:12:44.079Z,2.77
2017-09-02T08:15:15.176Z,2.70
2017-09-02T08:17:46.101Z,2.93
2017-09-02T08:20:13.605Z,2.93
2017-09-02T08:22:41.449Z,2.00
2017-09-02T08:25:16.242Z,2.63
2017-09-02T08:27:44.137Z,1.90
2017-09-02T08:30:11.626Z,2.20
2017-09-02T08:32:39.111Z,2.63
2017-09-02T08:35:06.692Z,1.93
2017-09-02T08:37:34.960Z,2.43
2017-09-02T08:40:05.418Z,3.20
2017-09-02T08:42:32.927Z,3.00
2017-09-02T08:45:00.546Z,2.40
2017-09-02T08:47:28.044Z,2.27
2017-09-02T08:49:55.544Z,2.43
2017-09-02T08:52:26.380Z,2.90
2017-09-02T08:54:53.875Z,3.20
2017-09-02T08:57:21.368Z,3.40
2017-09-02T08:59:55.309Z,3.20
2017-09-02T09:02:22.858Z,3.50
2017-09-02T09:04:51.469Z,3.20
2017-09-02T09:07:25.467Z,2.47
2017-09-02T09:09:53.322Z,3.10
2017-09-02T09:12:20.907Z,2.60
2017-09-02T09:14:48.392Z,3.20
2017-09-02T09:17:24.196Z,2.27
2017-09-02T09:19:51.765Z,3.00
2017-09-02T09:22:19.523Z,2.53
2017-09-02T09:24:47.104Z,2.37
2017-09-02T09:27:24.553Z,2.60
2017-09-02T09:29:52.053Z,2.43
2017-09-02T09:32:25.861Z,3.23
2017-09-02T09:34:53.356Z,1.97
2017-09-02T09:37:20.856Z,1.67
2017-09-02T09:39:54.859Z,2.03
2017-09-02T09:42:24.741Z,2.87
2017-09-02T09:44:52.530Z,2.50
2017-09-02T09:47:25.989Z,2.20
2017-09-02T09:49:53.812Z,2.57
2017-09-02T09:52:22.080Z,2.60
2017-09-02T09:54:49.575Z,2.47
2017-09-02T09:57:24.051Z,2.17
2017-09-02T09:59:51.598Z,1.67
2017-09-02T10:02:19.407Z,2.40
2017-09-02T10:04:54.694Z,2.70
2017-09-02T10:07:26.131Z,1.60
2017-09-02T10:09:54.680Z,2.43
2017-09-02T10:12:22.184Z,2.13
2017-09-02T10:14:49.684Z,1.90
2017-09-02T10:17:24.666Z,2.63
2017-09-02T10:19:56.052Z,2.20
2017-09-02T10:22:24.303Z,2.20
2017-09-02T10:24:51.823Z,2.70
2017-09-02T10:27:19.335Z,2.33
2017-09-02T10:29:46.937Z,2.60
2017-09-02T10:32:14.732Z,2.90
2017-09-02T10:34:45.542Z,2.40
2017-09-02T10:37:13.041Z,2.03
2017-09-02T10:39:46.771Z,1.93
2017-09-02T10:42:14.275Z,1.95
2017-09-02T10:44:45.895Z,2.80
2017-09-02T10:47:14.347Z,2.57
2017-09-02T10:49:45.068Z,2.07
2017-09-02T10:52:15.725Z,2.60
2017-09-02T10:54:44.343Z,2.43
2017-09-02T10:57:11.846Z,1.50
2017-09-02T10:59:45.669Z,1.90
2017-09-02T11:02:13.468Z,1.80
2017-09-02T11:04:40.990Z,1.80
2017-09-02T11:07:15.467Z,2.80
2017-09-02T11:09:42.956Z,2.60
2017-09-02T11:12:10.455Z,2.60
2017-09-02T11:14:38.745Z,2.30
2017-09-02T11:17:06.241Z,3.00
2017-09-02T11:19:34.492Z,2.30
2017-09-02T11:22:04.978Z,2.07
2017-09-02T11:24:33.235Z,2.57
2017-09-02T11:27:01.586Z,2.43
2017-09-02T11:29:34.742Z,2.00
2017-09-02T11:32:02.253Z,2.40
2017-09-02T11:34:36.212Z,2.20
2017-09-02T11:37:15.126Z,2.10
2017-09-02T11:39:44.809Z,1.90
2017-09-02T11:42:12.304Z,2.60
2017-09-02T11:44:39.815Z,1.60
2017-09-02T11:47:07.334Z,1.63
2017-09-02T11:49:34.867Z,2.53
2017-09-02T11:52:03.132Z,1.67
2017-09-02T11:54:30.939Z,1.37
2017-09-02T11:57:04.748Z,0.93
2017-09-02T11:59:36.008Z,1.30
2017-09-02T12:02:04.328Z,1.30
2017-09-02T12:04:35.133Z,1.47
2017-09-02T12:07:02.648Z,1.73
2017-09-02T12:09:30.153Z,1.63
2017-09-02T12:11:57.647Z,1.30
2017-09-02T12:14:35.659Z,1.73
2017-09-02T12:17:04.259Z,1.40
2017-09-02T12:19:31.788Z,1.50
2017-09-02T12:22:05.466Z,1.37
2017-09-02T12:24:34.180Z,1.10
2017-09-02T12:27:01.658Z,1.67
2017-09-02T12:29:36.596Z,2.07
2017-09-02T12:32:04.084Z,1.63
2017-09-02T12:34:35.202Z,1.63
2017-09-02T12:37:06.024Z,1.60
2017-09-02T12:39:34.925Z,1.57
2017-09-02T12:42:02.415Z,1.60
2017-09-02T12:44:29.910Z,1.63
2017-09-02T12:46:57.416Z,1.57
2017-09-02T12:49:24.911Z,1.40
2017-09-02T12:51:52.668Z,1.80
2017-09-02T12:54:20.168Z,2.50
2017-09-02T12:56:55.129Z,1.30
2017-09-02T12:59:22.607Z,2.20
2017-09-02T13:01:56.441Z,1.57
2017-09-02T13:04:23.934Z,1.83
2017-09-02T13:06:55.116Z,1.90
2017-09-02T13:09:22.613Z,1.97
2017-09-02T13:11:50.108Z,1.80
2017-09-02T13:14:24.186Z,1.47
2017-09-02T13:16:55.089Z,2.07
2017-09-02T13:19:22.851Z,1.97
2017-09-02T13:21:50.346Z,2.27
2017-09-02T13:24:17.838Z,1.80
2017-09-02T13:26:56.073Z,1.80
2017-09-02T13:29:23.564Z,2.50
2017-09-02T13:31:51.049Z,1.70
2017-09-02T13:34:18.547Z,1.47
2017-09-02T13:36:54.609Z,1.33
2017-09-02T13:39:22.111Z,1.87
2017-09-02T13:41:49.591Z,1.87
2017-09-02T13:44:24.192Z,1.67
2017-09-02T13:46:56.006Z,1.50
2017-09-02T13:49:24.956Z,1.70
2017-09-02T13:51:54.504Z,1.23
2017-09-02T13:54:25.491Z,1.83
2017-09-02T13:56:54.233Z,1.10
2017-09-02T13:59:21.736Z,1.57
2017-09-02T14:01:49.246Z,1.47
2017-09-02T14:04:16.774Z,1.97
2017-09-02T14:06:55.613Z,2.03
2017-09-02T14:09:23.110Z,1.70
2017-09-02T14:11:50.617Z,2.00
2017-09-02T14:14:24.635Z,1.60
2017-09-02T14:16:52.136Z,2.23
2017-09-02T14:19:19.619Z,2.50
2017-09-02T14:21:47.099Z,2.03
2017-09-02T14:24:14.870Z,1.80
2017-09-02T14:26:46.034Z,2.47
2017-09-02T14:29:13.527Z,1.70
2017-09-02T14:31:41.332Z,1.77
2017-09-02T14:34:09.590Z,1.47
2017-09-02T14:36:44.427Z,1.90
2017-09-02T14:39:11.937Z,1.83
2017-09-02T14:41:45.903Z,1.33
2017-09-02T14:44:14.372Z,2.03
2017-09-02T14:46:45.010Z,1.40
2017-09-02T14:49:15.627Z,1.03
2017-09-02T14:51:44.228Z,1.63
2017-09-02T14:54:12.535Z,1.70
2017-09-02T14:56:46.660Z,1.50
2017-09-02T14:59:14.496Z,2.20
2017-09-02T15:01:42.758Z,1.10
2017-09-02T15:04:16.221Z,1.63
2017-09-02T15:06:44.721Z,1.83
2017-09-02T15:09:15.356Z,1.90
2017-09-02T15:11:46.069Z,2.40
2017-09-02T15:14:13.578Z,1.93
2017-09-02T15:16:41.449Z,2.20
2017-09-02T15:19:08.944Z,1.70
2017-09-02T15:21:45.048Z,1.60
2017-09-02T15:24:12.546Z,1.50
2017-09-02T15:26:40.038Z,1.60
2017-09-02T15:29:07.534Z,1.37
2017-09-02T15:31:45.020Z,1.40
2017-09-02T15:34:16.113Z,2.10
2017-09-02T15:36:43.610Z,1.80
2017-09-02T15:39:14.932Z,1.90
2017-09-02T15:41:46.186Z,1.70
2017-09-02T15:44:14.697Z,2.13
2017-09-02T15:46:45.267Z,2.10
2017-09-02T15:49:15.701Z,1.90
2017-09-02T15:51:44.596Z,1.80
2017-09-02T15:54:15.134Z,1.80
2017-09-02T15:56:45.928Z,1.50
2017-09-02T15:59:14.376Z,2.60
2017-09-02T16:01:45.191Z,3.37
2017-09-02T16:11:04.281Z,1.87
2017-09-02T16:13:35.700Z,2.10
2017-09-02T16:16:04.200Z,2.03
2017-09-02T16:18:31.740Z,1.97
2017-09-02T16:20:59.603Z,1.97
2017-09-02T16:23:34.330Z,1.60
2017-09-02T16:26:05.579Z,3.07
2017-09-02T16:28:36.075Z,1.77
2017-09-02T16:31:04.322Z,2.33
2017-09-02T16:33:32.172Z,2.20
2017-09-02T16:36:06.255Z,2.50
2017-09-02T16:38:34.026Z,2.20
2017-09-02T16:41:05.930Z,2.50
2017-09-02T16:43:33.433Z,2.85
2017-09-02T16:46:01.216Z,2.53
2017-09-02T16:48:35.104Z,2.30
2017-09-02T16:51:02.885Z,1.48
2017-09-02T16:53:37.287Z,1.70
2017-09-02T16:56:05.137Z,1.80
2017-09-02T16:58:36.199Z,1.27
2017-09-02T17:01:15.032Z,1.30
2017-09-02T17:03:45.681Z,1.77
2017-09-02T17:06:13.170Z,1.40
2017-09-02T17:08:46.764Z,1.37
2017-09-02T17:11:24.490Z,0.90
2017-09-02T17:13:51.994Z,1.20
2017-09-02T17:16:26.052Z,1.10
2017-09-02T17:18:53.812Z,1.50
2017-09-02T17:21:21.294Z,1.40
2017-09-02T17:23:48.798Z,1.30
2017-09-02T17:26:24.815Z,1.57
2017-09-02T17:28:55.760Z,1.20
2017-09-02T17:31:24.380Z,1.00
2017-09-02T17:33:51.878Z,1.60
2017-09-02T17:36:19.368Z,1.53
2017-09-02T17:38:54.342Z,1.50
2017-09-02T17:41:21.826Z,1.60
2017-09-02T17:43:55.709Z,1.63
2017-09-02T17:46:23.214Z,1.63
2017-09-02T17:48:54.886Z,2.70
2017-09-02T17:51:25.286Z,1.97
2017-09-02T17:53:56.217Z,2.73
2017-09-02T17:56:24.311Z,1.93
2017-09-02T17:58:54.992Z,2.50
2017-09-02T18:01:22.493Z,2.40
2017-09-02T18:03:50.739Z,2.40
2017-09-02T18:06:18.530Z,4.27
2017-09-02T18:08:55.745Z,2.63
2017-09-02T18:11:24.928Z,3.30
2017-09-02T18:13:54.167Z,3.27
2017-09-02T18:16:21.673Z,2.90
2017-09-02T18:18:55.466Z,3.80
2017-09-02T18:21:22.955Z,2.80
2017-09-02T18:23:50.807Z,2.73
2017-09-02T18:26:18.301Z,3.23
2017-09-02T18:28:45.788Z,2.87
2017-09-02T18:31:14.752Z,2.77
2017-09-02T18:33:42.244Z,3.30
2017-09-02T18:36:10.043Z,2.30
2017-09-02T18:38:38.295Z,3.07
2017-09-02T18:41:05.800Z,2.97
2017-09-02T18:43:33.312Z,3.60
2017-09-02T18:46:00.786Z,2.77
2017-09-02T18:48:28.673Z,2.60
2017-09-02T18:50:56.165Z,2.87
2017-09-02T18:53:23.665Z,2.80
2017-09-02T18:55:55.007Z,3.17
2017-09-02T18:58:25.744Z,3.10
2017-09-02T19:00:54.367Z,2.00
2017-09-02T19:03:25.004Z,2.80
2017-09-02T19:05:56.133Z,2.73
2017-09-02T19:08:23.632Z,2.87
2017-09-02T19:10:54.279Z,2.97
2017-09-02T19:13:24.899Z,3.70
2017-09-02T19:15:52.402Z,3.07
2017-09-02T19:18:26.016Z,3.00
2017-09-02T19:20:54.828Z,3.07
2017-09-02T19:23:22.663Z,3.37
2017-09-02T19:25:55.857Z,5.20
2017-09-02T19:28:24.956Z,3.30
2017-09-02T19:30:52.513Z,3.40
2017-09-02T19:33:20.008Z,3.87
2017-09-02T19:35:54.223Z,4.20
2017-09-02T19:38:21.745Z,4.73
2017-09-02T19:40:50.125Z,3.53
2017-09-02T19:43:17.624Z,3.00
2017-09-02T19:45:45.389Z,3.33
2017-09-02T19:48:12.912Z,2.60
2017-09-02T19:50:46.982Z,2.67
2017-09-02T19:53:14.464Z,4.07
2017-09-02T19:55:41.956Z,2.93
2017-09-02T19:58:09.808Z,3.73
2017-09-02T20:00:44.556Z,4.73
2017-09-02T20:03:15.776Z,4.33
2017-09-02T20:05:43.360Z,2.90
2017-09-02T20:08:10.843Z,3.60
2017-09-02T20:10:45.087Z,2.90
2017-09-02T20:13:15.783Z,3.13
2017-09-02T20:15:45.846Z,4.27
2017-09-02T20:18:14.347Z,4.37
2017-09-02T20:20:45.284Z,4.80
2017-09-02T20:23:15.994Z,5.40
2017-09-02T20:25:44.246Z,4.27
2017-09-02T20:28:15.629Z,4.33
2017-09-02T20:30:44.392Z,6.07
2017-09-02T20:33:15.133Z,5.17
2017-09-02T20:35:42.717Z,4.13
2017-09-02T20:38:11.335Z,4.13
2017-09-02T20:40:38.830Z,4.87
2017-09-02T20:43:06.321Z,4.80
2017-09-02T20:45:34.075Z,3.60
2017-09-02T20:48:04.777Z,3.57
2017-09-02T20:50:32.287Z,4.67
2017-09-02T20:53:06.088Z,3.50
2017-09-02T20:55:33.642Z,3.73
2017-09-02T20:58:05.127Z,3.17
2017-09-02T21:00:32.643Z,4.00
2017-09-02T21:03:00.139Z,3.73
2017-09-02T21:05:34.771Z,3.40
2017-09-02T21:08:02.275Z,4.43
2017-09-02T21:10:36.056Z,4.00
2017-09-02T21:13:03.563Z,3.43
2017-09-02T21:15:31.065Z,3.37
2017-09-02T21:17:58.884Z,3.30
2017-09-02T21:20:34.541Z,3.00
2017-09-02T21:23:05.789Z,3.70
2017-09-02T21:25:35.035Z,4.07
2017-09-02T21:28:02.531Z,4.60
2017-09-02T21:30:30.436Z,4.30
2017-09-02T21:32:57.974Z,4.07
2017-09-02T21:35:25.474Z,4.03
2017-09-02T21:37:54.750Z,3.70
2017-09-02T21:40:22.288Z,4.80
2017-09-02T21:42:56.090Z,3.70
2017-09-02T21:45:23.639Z,5.10
2017-09-02T21:47:51.122Z,4.30
2017-09-02T21:50:24.800Z,4.37
2017-09-02T21:52:52.399Z,4.47
2017-09-02T21:55:26.529Z,5.03
2017-09-02T21:57:54.274Z,4.03
2017-09-02T22:00:21.746Z,4.60
2017-09-02T22:02:49.242Z,5.00
2017-09-02T22:05:17.498Z,4.60
2017-09-02T22:07:55.635Z,3.37
2017-09-02T22:10:23.118Z,5.27
2017-09-02T22:12:50.617Z,4.90
2017-09-02T22:15:18.119Z,4.80
2017-09-02T22:17:45.595Z,5.00
2017-09-02T22:20:15.096Z,4.77
2017-09-02T22:22:44.355Z,3.87
2017-09-02T22:25:15.442Z,6.03
2017-09-02T22:27:42.931Z,5.77
2017-09-02T22:30:16.535Z,5.53
2017-09-02T22:32:44.029Z,3.60
2017-09-02T22:35:11.538Z,5.73
2017-09-02T22:37:45.305Z,4.80
2017-09-02T22:40:12.793Z,5.47
2017-09-02T22:42:40.301Z,5.10
2017-09-02T22:45:14.386Z,4.90
2017-09-02T22:47:42.219Z,5.87
2017-09-02T22:50:16.006Z,5.40
2017-09-02T22:52:43.881Z,7.03
2017-09-02T22:55:14.644Z,5.23
2017-09-02T22:57:42.133Z,5.20
2017-09-02T23:00:15.778Z,5.50
2017-09-02T23:02:44.787Z,5.90
2017-09-02T23:05:15.612Z,5.70
2017-09-02T23:07:45.019Z,5.03
2017-09-02T23:10:12.516Z,7.03
2017-09-02T23:12:45.980Z,4.70
2017-09-02T23:15:14.916Z,6.13
2017-09-02T23:17:42.424Z,4.90
2017-09-02T23:20:10.002Z,6.30
2017-09-02T23:22:44.255Z,4.87
2017-09-02T23:25:11.847Z,5.63
2017-09-02T23:27:45.527Z,5.83
2017-09-02T23:30:13.020Z,5.00
2017-09-02T23:32:46.850Z,5.33
2017-09-02T23:35:24.219Z,6.13
2017-09-02T23:37:52.089Z,5.20
2017-09-02T23:40:26.817Z,5.97
2017-09-02T23:42:54.787Z,6.30
2017-09-02T23:45:22.273Z,5.90
2017-09-02T23:47:49.754Z,6.03
2017-09-02T23:50:24.279Z,5.97
2017-09-02T23:52:51.870Z,5.10
2017-09-02T23:55:19.648Z,4.77
2017-09-02T23:57:54.784Z,5.80
